createdAt,value
2023-04-09T00:00:52.723Z,45.20
2023-04-09T00:03:22.772Z,45.20
2023-04-09T00:05:50.895Z,45.10
2023-04-09T00:08:18.761Z,45.20
2023-04-09T00:10:46.607Z,45.10
2023-04-09T00:13:17.008Z,45.20
2023-04-09T00:15:48.240Z,45.20
2023-04-09T00:18:16.666Z,45.30
2023-04-09T00:20:44.521Z,45.30
2023-04-09T00:23:13.038Z,45.20
2023-04-09T00:25:40.946Z,45.20
2023-04-09T00:28:09.028Z,45.20
2023-04-09T00:30:36.927Z,45.20
2023-04-09T00:33:04.863Z,45.20
2023-04-09T00:35:32.741Z,45.30
2023-04-09T00:38:00.823Z,45.10
2023-04-09T00:40:28.721Z,45.20
2023-04-09T00:42:57.235Z,45.20
2023-04-09T00:45:25.311Z,45.20
2023-04-09T00:47:53.221Z,45.40
2023-04-09T00:50:21.185Z,45.40
2023-04-09T00:52:49.225Z,45.50
2023-04-09T00:55:17.051Z,45.50
2023-04-09T00:57:44.910Z,45.40
2023-04-09T01:00:13.237Z,46.20
2023-04-09T01:02:44.375Z,45.50
2023-04-09T01:05:12.571Z,45.60
2023-04-09T01:07:40.896Z,45.60
2023-04-09T01:10:10.749Z,45.60
2023-04-09T01:12:38.769Z,45.60
2023-04-09T01:15:06.556Z,45.50
2023-04-09T01:17:34.389Z,45.40
2023-04-09T01:20:02.212Z,45.40
2023-04-09T01:22:30.083Z,45.40
2023-04-09T01:24:57.906Z,45.40
2023-04-09T01:27:25.667Z,45.40
2023-04-09T01:29:53.548Z,45.40
2023-04-09T01:32:21.376Z,45.30
2023-04-09T01:34:49.214Z,45.10
2023-04-09T01:37:17.225Z,45.30
2023-04-09T01:39:45.132Z,45.30
2023-04-09T01:42:12.934Z,45.30
2023-04-09T01:44:41.058Z,45.30
2023-04-09T01:47:09.066Z,45.30
2023-04-09T01:49:40.125Z,45.30
2023-04-09T01:52:07.969Z,45.30
2023-04-09T01:54:35.981Z,45.30
2023-04-09T01:57:03.812Z,45.30
2023-04-09T01:59:32.007Z,45.30
2023-04-09T02:01:59.869Z,45.30
2023-04-09T02:04:27.865Z,45.30
2023-04-09T02:06:56.136Z,45.30
2023-04-09T02:09:23.879Z,45.40
2023-04-09T02:11:51.736Z,45.50
2023-04-09T02:14:19.554Z,45.30
2023-04-09T02:16:47.369Z,46.00
2023-04-09T02:19:15.933Z,45.40
2023-04-09T02:21:44.369Z,45.30
2023-04-09T02:24:12.210Z,45.40
2023-04-09T02:26:40.117Z,45.40
2023-04-09T02:29:07.860Z,45.40
2023-04-09T02:31:35.886Z,45.40
2023-04-09T02:34:03.711Z,45.30
2023-04-09T02:36:31.612Z,45.40
2023-04-09T02:38:59.495Z,45.40
2023-04-09T02:41:27.386Z,45.50
2023-04-09T02:43:55.179Z,45.60
2023-04-09T02:46:23.038Z,45.50
2023-04-09T02:48:50.982Z,45.50
2023-04-09T02:51:19.172Z,45.50
2023-04-09T02:53:46.945Z,45.60
2023-04-09T02:56:14.732Z,45.60
2023-04-09T02:58:42.869Z,45.60
2023-04-09T03:01:11.129Z,45.50
2023-04-09T03:03:42.263Z,45.70
2023-04-09T03:06:10.191Z,45.60
2023-04-09T03:08:37.975Z,45.70
2023-04-09T03:11:05.875Z,45.70
2023-04-09T03:13:33.732Z,45.70
2023-04-09T03:16:01.561Z,45.70
2023-04-09T03:18:31.555Z,45.70
2023-04-09T03:20:59.422Z,45.70
2023-04-09T03:23:27.369Z,45.70
2023-04-09T03:25:55.193Z,45.70
2023-04-09T03:28:23.046Z,45.60
2023-04-09T03:30:51.096Z,45.70
2023-04-09T03:33:19.704Z,45.70
2023-04-09T03:35:47.543Z,46.00
2023-04-09T03:38:15.430Z,46.20
2023-04-09T03:40:43.323Z,46.40
2023-04-09T03:43:11.130Z,46.40
2023-04-09T03:45:38.925Z,46.20
2023-04-09T03:48:06.763Z,46.20
2023-04-09T03:50:34.579Z,46.10
2023-04-09T03:53:02.381Z,46.00
2023-04-09T03:55:30.240Z,46.00
2023-04-09T03:57:58.116Z,46.00
2023-04-09T04:00:26.088Z,45.90
2023-04-09T04:02:54.203Z,46.00
2023-04-09T04:05:23.337Z,45.90
2023-04-09T04:07:51.198Z,46.00
2023-04-09T04:10:19.289Z,46.50
2023-04-09T04:12:47.155Z,45.80
2023-04-09T04:15:14.989Z,45.90
2023-04-09T04:17:42.833Z,45.80
2023-04-09T04:20:10.748Z,45.80
2023-04-09T04:22:38.707Z,45.80
2023-04-09T04:25:06.501Z,45.90
2023-04-09T04:27:34.298Z,46.00
2023-04-09T04:30:02.262Z,45.80
2023-04-09T04:32:30.107Z,45.80
2023-04-09T04:34:57.916Z,45.80
2023-04-09T04:37:25.921Z,45.90
2023-04-09T04:39:53.731Z,45.80
2023-04-09T04:42:21.628Z,45.70
2023-04-09T04:44:49.405Z,45.70
2023-04-09T04:47:17.219Z,45.40
2023-04-09T04:49:45.005Z,45.40
2023-04-09T04:52:12.814Z,45.30
2023-04-09T04:54:40.699Z,45.10
2023-04-09T04:57:08.534Z,44.90
2023-04-09T04:59:36.273Z,45.00
2023-04-09T05:02:04.548Z,44.90
2023-04-09T05:04:32.457Z,44.90
2023-04-09T05:07:00.225Z,44.80
2023-04-09T05:09:28.262Z,45.00
2023-04-09T05:11:57.060Z,45.00
2023-04-09T05:14:25.338Z,43.20
2023-04-09T05:16:53.392Z,41.90
2023-04-09T05:19:21.269Z,41.50
2023-04-09T05:21:49.077Z,41.90
2023-04-09T05:24:17.154Z,42.10
2023-04-09T05:26:45.074Z,41.80
2023-04-09T05:29:12.813Z,41.70
2023-04-09T05:31:43.175Z,41.50
2023-04-09T05:34:11.278Z,40.70
2023-04-09T05:36:39.033Z,40.50
2023-04-09T05:39:06.829Z,40.30
2023-04-09T05:41:37.285Z,40.50
2023-04-09T05:44:05.155Z,40.30
2023-04-09T05:46:33.041Z,39.70
2023-04-09T05:49:00.845Z,39.50
2023-04-09T05:51:28.769Z,39.40
2023-04-09T05:53:56.566Z,39.30
2023-04-09T05:56:24.577Z,39.50
2023-04-09T05:58:52.391Z,39.00
2023-04-09T06:01:20.177Z,38.70
2023-04-09T06:03:48.126Z,38.60
2023-04-09T06:06:16.170Z,38.80
2023-04-09T06:08:45.016Z,38.70
2023-04-09T06:11:12.806Z,39.30
2023-04-09T06:13:40.578Z,39.10
2023-04-09T06:16:08.662Z,39.10
2023-04-09T06:18:36.475Z,39.20
2023-04-09T06:21:04.440Z,38.90
2023-04-09T06:23:32.513Z,39.10
2023-04-09T06:26:00.417Z,39.10
2023-04-09T06:28:28.403Z,39.20
2023-04-09T06:30:56.290Z,39.40
2023-04-09T06:33:24.114Z,39.60
2023-04-09T06:35:51.947Z,39.80
2023-04-09T06:38:19.764Z,39.30
2023-04-09T06:40:47.824Z,39.60
2023-04-09T06:43:15.650Z,40.20
2023-04-09T06:45:43.470Z,41.20
2023-04-09T06:48:11.273Z,41.40
2023-04-09T06:50:39.208Z,41.50
2023-04-09T06:53:06.973Z,41.70
2023-04-09T06:55:34.842Z,41.80
2023-04-09T06:58:03.429Z,41.70
2023-04-09T07:00:31.376Z,41.80
2023-04-09T07:02:59.199Z,41.70
2023-04-09T07:05:27.275Z,41.80
2023-04-09T07:07:55.058Z,41.80
2023-04-09T07:10:22.859Z,41.90
2023-04-09T07:12:50.673Z,42.00
2023-04-09T07:15:18.633Z,42.10
2023-04-09T07:17:46.504Z,42.10
2023-04-09T07:20:14.694Z,42.20
2023-04-09T07:22:42.802Z,42.20
2023-04-09T07:25:10.935Z,42.20
2023-04-09T07:27:38.696Z,42.20
2023-04-09T07:30:06.483Z,42.20
2023-04-09T07:32:34.429Z,42.00
2023-04-09T07:35:02.505Z,41.80
2023-04-09T07:37:30.633Z,40.90
2023-04-09T07:39:58.430Z,41.20
2023-04-09T07:42:27.350Z,40.60
2023-04-09T07:44:55.268Z,40.40
2023-04-09T07:47:23.271Z,40.50
2023-04-09T07:49:51.637Z,40.50
2023-04-09T07:52:20.216Z,40.50
2023-04-09T07:54:48.038Z,40.40
2023-04-09T07:57:15.932Z,40.00
2023-04-09T07:59:43.705Z,39.80
2023-04-09T08:02:14.357Z,40.20
2023-04-09T08:04:43.062Z,41.60
2023-04-09T08:07:11.545Z,41.80
2023-04-09T08:09:39.433Z,41.90
2023-04-09T08:12:07.213Z,42.00
2023-04-09T08:14:35.059Z,42.20
2023-04-09T08:17:03.377Z,42.40
2023-04-09T08:19:31.361Z,42.40
2023-04-09T08:21:59.217Z,42.20
2023-04-09T08:24:27.049Z,42.30
2023-04-09T08:26:54.875Z,42.10
2023-04-09T08:29:22.648Z,42.20
2023-04-09T08:31:50.744Z,42.20
2023-04-09T08:34:21.162Z,42.00
2023-04-09T08:36:49.919Z,42.00
2023-04-09T08:39:18.981Z,42.70
2023-04-09T08:41:47.627Z,42.30
2023-04-09T08:44:15.594Z,42.40
2023-04-09T08:46:43.417Z,42.10
2023-04-09T08:49:11.523Z,42.10
2023-04-09T08:51:40.405Z,42.10
2023-04-09T08:54:08.353Z,42.10
2023-04-09T08:56:36.431Z,42.10
2023-04-09T08:59:04.360Z,42.40
2023-04-09T09:01:32.560Z,42.60
2023-04-09T09:04:00.736Z,42.60
2023-04-09T09:06:30.134Z,42.60
2023-04-09T09:08:57.961Z,42.60
2023-04-09T09:11:26.045Z,42.70
2023-04-09T09:13:53.830Z,42.70
2023-04-09T09:16:21.755Z,42.80
2023-04-09T09:18:49.960Z,42.80
2023-04-09T09:21:19.494Z,42.70
2023-04-09T09:23:48.517Z,42.50
2023-04-09T09:26:16.577Z,42.60
2023-04-09T09:28:44.413Z,42.70
2023-04-09T09:31:12.625Z,42.80
2023-04-09T09:33:40.630Z,42.60
2023-04-09T09:36:09.596Z,42.80
2023-04-09T09:38:37.429Z,42.80
2023-04-09T09:41:05.461Z,42.80
2023-04-09T09:43:33.222Z,42.80
2023-04-09T09:46:01.052Z,42.90
2023-04-09T09:48:28.873Z,42.80
2023-04-09T09:50:56.891Z,42.60
2023-04-09T09:53:25.219Z,42.80
2023-04-09T09:55:53.122Z,42.90
2023-04-09T09:58:20.912Z,42.80
2023-04-09T10:00:49.006Z,42.80
2023-04-09T10:03:17.165Z,42.80
2023-04-09T10:05:45.974Z,42.70
2023-04-09T10:08:13.882Z,42.80
2023-04-09T10:10:42.425Z,43.00
2023-04-09T10:13:10.270Z,43.00
2023-04-09T10:15:38.439Z,43.00
2023-04-09T10:18:06.413Z,42.90
2023-04-09T10:20:34.773Z,42.70
2023-04-09T10:23:02.534Z,42.90
2023-04-09T10:25:30.371Z,42.60
2023-04-09T10:27:58.156Z,42.60
2023-04-09T10:30:25.969Z,42.60
2023-04-09T10:32:54.172Z,42.70
2023-04-09T10:35:22.044Z,42.80
2023-04-09T10:37:50.688Z,42.70
2023-04-09T10:40:18.618Z,42.90
2023-04-09T10:42:47.880Z,43.00
2023-04-09T10:45:16.926Z,43.10
2023-04-09T10:47:46.340Z,43.00
2023-04-09T10:50:14.542Z,43.00
2023-04-09T10:52:42.573Z,43.10
2023-04-09T10:55:10.369Z,42.80
2023-04-09T10:57:38.131Z,42.90
2023-04-09T11:00:05.946Z,42.60
2023-04-09T11:02:33.905Z,42.40
2023-04-09T11:05:02.058Z,42.60
2023-04-09T11:07:30.232Z,43.00
2023-04-09T11:09:58.054Z,43.00
2023-04-09T11:12:26.087Z,42.80
2023-04-09T11:14:53.992Z,42.50
2023-04-09T11:17:21.901Z,42.30
2023-04-09T11:19:49.862Z,42.70
2023-04-09T11:22:17.807Z,42.40
2023-04-09T11:24:46.619Z,42.40
2023-04-09T11:27:19.600Z,42.40
2023-04-09T11:29:47.464Z,42.60
2023-04-09T11:32:15.723Z,42.10
2023-04-09T11:34:43.577Z,42.10
2023-04-09T11:37:12.248Z,42.00
2023-04-09T11:39:42.979Z,42.00
2023-04-09T11:42:10.909Z,42.20
2023-04-09T11:44:38.772Z,42.40
2023-04-09T11:47:07.489Z,42.70
2023-04-09T11:49:35.349Z,42.80
2023-04-09T11:52:04.138Z,42.80
2023-04-09T11:54:31.908Z,42.80
2023-04-09T11:56:59.707Z,42.70
2023-04-09T11:59:27.512Z,42.80
2023-04-09T12:01:55.510Z,42.80
2023-04-09T12:04:23.569Z,42.70
2023-04-09T12:06:52.002Z,42.60
2023-04-09T12:09:19.796Z,42.80
2023-04-09T12:11:47.581Z,42.70
2023-04-09T12:14:16.276Z,42.60
2023-04-09T12:16:44.886Z,42.70
2023-04-09T12:19:12.806Z,42.60
2023-04-09T12:21:40.601Z,42.50
2023-04-09T12:24:08.369Z,42.30
2023-04-09T12:26:36.178Z,42.30
2023-04-09T12:29:03.992Z,42.10
2023-04-09T12:31:31.803Z,41.90
2023-04-09T12:33:59.647Z,41.40
2023-04-09T12:36:27.668Z,41.40
2023-04-09T12:38:55.833Z,41.00
2023-04-09T12:41:23.635Z,41.00
2023-04-09T12:43:51.658Z,41.10
2023-04-09T12:46:19.612Z,41.10
2023-04-09T12:48:47.493Z,40.30
2023-04-09T12:51:15.332Z,39.60
2023-04-09T12:53:44.661Z,39.30
2023-04-09T12:56:12.471Z,39.20
2023-04-09T12:58:40.463Z,38.20
2023-04-09T13:01:08.295Z,39.00
2023-04-09T13:03:36.672Z,38.30
2023-04-09T13:06:04.605Z,38.50
2023-04-09T13:08:32.404Z,38.40
2023-04-09T13:11:00.838Z,39.10
2023-04-09T13:13:28.709Z,39.30
2023-04-09T13:15:58.980Z,39.10
2023-04-09T13:18:26.753Z,38.90
2023-04-09T13:20:54.557Z,38.10
2023-04-09T13:23:22.345Z,37.60
2023-04-09T13:25:50.129Z,37.70
2023-04-09T13:28:17.995Z,37.00
2023-04-09T13:30:45.778Z,37.20
2023-04-09T13:33:13.573Z,37.50
2023-04-09T13:35:41.518Z,37.20
2023-04-09T13:38:12.598Z,37.00
2023-04-09T13:40:40.730Z,37.70
2023-04-09T13:43:08.493Z,37.30
2023-04-09T13:45:39.461Z,37.60
2023-04-09T13:48:07.385Z,37.60
2023-04-09T13:50:35.353Z,37.50
2023-04-09T13:53:05.340Z,37.60
2023-04-09T13:55:33.209Z,37.80
2023-04-09T13:58:00.995Z,37.70
2023-04-09T14:00:29.079Z,38.00
2023-04-09T14:02:57.023Z,38.50
2023-04-09T14:05:25.303Z,39.30
2023-04-09T14:07:53.098Z,39.60
2023-04-09T14:10:20.881Z,39.60
2023-04-09T14:12:48.807Z,39.70
2023-04-09T14:15:16.890Z,40.00
2023-04-09T14:17:44.707Z,39.90
2023-04-09T14:20:12.650Z,40.60
2023-04-09T14:22:41.512Z,39.80
2023-04-09T14:25:09.324Z,38.90
2023-04-09T14:27:40.116Z,38.30
2023-04-09T14:30:07.905Z,38.90
2023-04-09T14:32:36.387Z,38.30
2023-04-09T14:35:04.278Z,39.00
2023-04-09T14:37:32.297Z,39.30
2023-04-09T14:40:00.068Z,39.20
2023-04-09T14:42:28.106Z,38.80
2023-04-09T14:44:56.124Z,38.60
2023-04-09T14:47:23.997Z,38.20
2023-04-09T14:49:55.041Z,38.80
2023-04-09T14:52:22.966Z,38.60
2023-04-09T14:54:52.966Z,38.60
2023-04-09T14:57:20.853Z,38.40
2023-04-09T14:59:48.684Z,38.60
2023-04-09T15:02:16.686Z,38.00
2023-04-09T15:04:44.718Z,37.40
2023-04-09T15:07:13.011Z,37.50
2023-04-09T15:09:40.866Z,37.60
2023-04-09T15:12:09.638Z,37.20
2023-04-09T15:14:37.435Z,37.10
2023-04-09T15:17:05.422Z,37.20
2023-04-09T15:19:33.445Z,35.90
2023-04-09T15:22:01.254Z,35.90
2023-04-09T15:24:29.024Z,36.20
2023-04-09T15:26:57.011Z,36.20
2023-04-09T15:29:24.789Z,36.50
2023-04-09T15:31:52.967Z,36.80
2023-04-09T15:34:20.948Z,36.60
2023-04-09T15:36:48.952Z,37.90
2023-04-09T15:39:17.138Z,38.70
2023-04-09T15:41:45.019Z,38.90
2023-04-09T15:44:12.824Z,39.00
2023-04-09T15:46:40.902Z,39.20
2023-04-09T15:49:11.722Z,39.20
2023-04-09T15:51:39.549Z,39.20
2023-04-09T15:54:07.360Z,39.40
2023-04-09T15:56:39.917Z,39.40
2023-04-09T15:59:08.351Z,39.50
2023-04-09T16:01:36.716Z,39.70
2023-04-09T16:04:09.506Z,39.50
2023-04-09T16:06:37.346Z,39.80
2023-04-09T16:09:05.288Z,40.00
2023-04-09T16:11:37.601Z,39.70
2023-04-09T16:14:05.482Z,39.70
2023-04-09T16:16:33.274Z,40.00
2023-04-09T16:19:01.135Z,39.80
2023-04-09T16:21:29.213Z,40.10
2023-04-09T16:23:57.534Z,39.80
2023-04-09T16:26:28.596Z,39.80
2023-04-09T16:28:59.928Z,36.80
2023-04-09T16:31:30.381Z,37.50
2023-04-09T16:33:58.738Z,37.50
2023-04-09T16:36:27.127Z,37.10
2023-04-09T16:38:55.201Z,37.30
2023-04-09T16:41:23.004Z,37.20
2023-04-09T16:43:51.493Z,37.30
2023-04-09T16:46:19.400Z,37.10
2023-04-09T16:48:47.561Z,38.00
2023-04-09T16:51:15.584Z,36.80
2023-04-09T16:53:43.525Z,37.50
2023-04-09T16:56:11.527Z,37.50
2023-04-09T16:58:39.497Z,38.00
2023-04-09T17:01:07.619Z,38.00
2023-04-09T17:03:35.744Z,38.40
2023-04-09T17:06:05.183Z,36.40
2023-04-09T17:08:33.161Z,37.00
2023-04-09T17:11:03.213Z,37.10
2023-04-09T17:13:31.716Z,36.00
2023-04-09T17:15:59.651Z,36.40
2023-04-09T17:18:27.884Z,36.70
2023-04-09T17:20:56.288Z,37.20
2023-04-09T17:23:26.427Z,36.10
2023-04-09T17:28:25.185Z,36.00
2023-04-09T17:30:53.265Z,36.50
2023-04-09T17:33:24.118Z,36.50
2023-04-09T17:35:53.099Z,36.70
2023-04-09T17:38:21.721Z,36.80
2023-04-09T17:40:49.760Z,36.90
2023-04-09T17:43:17.873Z,37.00
2023-04-09T17:45:46.274Z,36.70
2023-04-09T17:48:18.509Z,37.00
2023-04-09T17:50:46.854Z,37.40
2023-04-09T17:53:14.926Z,37.60
2023-04-09T17:55:42.914Z,38.60
2023-04-09T17:58:10.966Z,39.10
2023-04-09T18:00:39.025Z,39.20
2023-04-09T18:03:07.198Z,39.40
2023-04-09T18:05:35.375Z,39.70
2023-04-09T18:08:03.363Z,39.60
2023-04-09T18:10:32.816Z,39.70
2023-04-09T18:13:00.813Z,39.90
2023-04-09T18:15:28.706Z,39.80
2023-04-09T18:17:56.570Z,40.10
2023-04-09T18:20:24.665Z,40.10
2023-04-09T18:22:54.831Z,40.10
2023-04-09T18:25:23.569Z,40.30
2023-04-09T18:27:51.456Z,39.20
2023-04-09T18:30:19.309Z,39.10
2023-04-09T18:32:48.356Z,39.40
2023-04-09T18:35:17.464Z,39.00
2023-04-09T18:37:45.420Z,39.10
2023-04-09T18:40:15.692Z,39.00
2023-04-09T18:42:43.580Z,39.20
2023-04-09T18:45:11.858Z,38.90
2023-04-09T18:47:40.479Z,39.10
2023-04-09T18:50:08.787Z,38.90
2023-04-09T18:52:38.595Z,39.00
2023-04-09T18:55:06.682Z,39.10
2023-04-09T18:57:34.660Z,38.90
2023-04-09T19:00:03.943Z,38.70
2023-04-09T19:02:32.190Z,38.90
2023-04-09T19:05:00.292Z,38.80
2023-04-09T19:07:28.265Z,38.70
2023-04-09T19:09:56.507Z,38.60
2023-04-09T19:12:25.054Z,38.60
2023-04-09T19:14:53.768Z,38.40
2023-04-09T19:17:21.707Z,38.60
2023-04-09T19:19:51.705Z,38.50
2023-04-09T19:22:19.733Z,38.60
2023-04-09T19:24:47.650Z,38.70
2023-04-09T19:27:15.572Z,38.70
2023-04-09T19:29:44.160Z,38.80
2023-04-09T19:32:14.989Z,38.80
2023-04-09T19:34:42.790Z,39.50
2023-04-09T19:37:12.545Z,38.40
2023-04-09T19:39:41.691Z,38.60
2023-04-09T19:42:09.590Z,38.80
2023-04-09T19:44:37.721Z,39.00
2023-04-09T19:47:07.768Z,39.10
2023-04-09T19:49:35.720Z,38.90
2023-04-09T19:52:09.222Z,39.00
2023-04-09T19:54:39.748Z,39.70
2023-04-09T19:57:15.264Z,39.80
2023-04-09T19:59:43.056Z,40.00
2023-04-09T20:02:10.913Z,40.20
2023-04-09T20:04:40.474Z,40.30
2023-04-09T20:07:08.266Z,40.40
2023-04-09T20:09:41.434Z,40.50
2023-04-09T20:12:09.242Z,40.60
2023-04-09T20:14:38.299Z,40.70
2023-04-09T20:17:06.172Z,40.70
2023-04-09T20:19:34.130Z,40.80
2023-04-09T20:22:02.050Z,40.90
2023-04-09T20:24:32.332Z,40.90
2023-04-09T20:27:00.112Z,41.10
2023-04-09T20:29:27.955Z,41.20
2023-04-09T20:31:55.818Z,41.90
2023-04-09T20:34:27.070Z,41.30
2023-04-09T20:36:55.536Z,41.30
2023-04-09T20:39:26.924Z,41.40
2023-04-09T20:41:55.160Z,41.50
2023-04-09T20:44:22.990Z,41.50
2023-04-09T20:46:50.906Z,41.60
2023-04-09T20:49:18.701Z,41.70
2023-04-09T20:51:46.528Z,41.80
2023-04-09T20:54:14.326Z,41.90
2023-04-09T20:56:42.182Z,41.90
2023-04-09T20:59:10.001Z,42.00
2023-04-09T21:01:37.994Z,42.00
2023-04-09T21:04:08.613Z,42.10
2023-04-09T21:06:36.605Z,42.10
2023-04-09T21:09:04.528Z,42.00
2023-04-09T21:11:32.452Z,42.20
2023-04-09T21:14:03.050Z,42.20
2023-04-09T21:16:31.227Z,42.20
2023-04-09T21:19:07.162Z,42.20
2023-04-09T21:21:35.095Z,42.30
2023-04-09T21:24:03.109Z,42.30
2023-04-09T21:26:38.670Z,42.30
2023-04-09T21:29:17.612Z,42.30
2023-04-09T21:31:45.702Z,42.30
2023-04-09T21:34:13.538Z,42.40
2023-04-09T21:36:41.393Z,42.50
2023-04-09T21:39:09.283Z,42.50
2023-04-09T21:41:37.052Z,42.60
2023-04-09T21:44:08.574Z,42.70
2023-04-09T21:46:37.146Z,42.70
2023-04-09T21:49:05.094Z,42.70
2023-04-09T21:51:33.170Z,42.70
2023-04-09T21:54:01.035Z,42.80
2023-04-09T21:56:28.817Z,42.80
2023-04-09T21:58:56.902Z,42.80
2023-04-09T22:01:29.474Z,42.90
2023-04-09T22:03:57.553Z,42.80
2023-04-09T22:06:27.076Z,42.90
2023-04-09T22:08:56.866Z,42.90
2023-04-09T22:11:25.052Z,42.90
2023-04-09T22:13:53.214Z,42.90
2023-04-09T22:16:21.014Z,43.00
2023-04-09T22:18:49.076Z,43.00
2023-04-09T22:21:16.879Z,43.00
2023-04-09T22:23:44.725Z,43.00
2023-04-09T22:26:12.645Z,43.10
2023-04-09T22:28:40.438Z,43.00
2023-04-09T22:31:08.256Z,43.10
2023-04-09T22:33:36.142Z,43.10
2023-04-09T22:36:03.943Z,43.10
2023-04-09T22:38:31.862Z,43.10
2023-04-09T22:40:59.788Z,43.20
2023-04-09T22:43:27.584Z,43.30
2023-04-09T22:45:56.028Z,43.30
2023-04-09T22:48:24.119Z,43.30
2023-04-09T22:50:54.294Z,43.30
2023-04-09T22:53:24.791Z,43.30
2023-04-09T22:55:52.603Z,43.20
2023-04-09T22:58:20.546Z,43.30
2023-04-09T23:00:48.348Z,43.30
2023-04-09T23:03:16.913Z,43.40
2023-04-09T23:05:44.799Z,43.50
2023-04-09T23:08:12.640Z,43.50
2023-04-09T23:10:40.485Z,43.50
2023-04-09T23:13:10.252Z,43.50
2023-04-09T23:15:38.071Z,43.60
2023-04-09T23:18:05.887Z,43.60
2023-04-09T23:20:33.765Z,43.60
2023-04-09T23:23:01.683Z,43.60
2023-04-09T23:25:29.462Z,43.60
2023-04-09T23:27:57.354Z,43.60
2023-04-09T23:30:25.173Z,43.60
2023-04-09T23:32:55.607Z,43.60
2023-04-09T23:35:25.427Z,43.70
2023-04-09T23:37:53.341Z,43.70
2023-04-09T23:40:21.491Z,43.70
2023-04-09T23:42:50.285Z,43.80
2023-04-09T23:45:18.106Z,43.70
2023-04-09T23:47:46.180Z,43.80
2023-04-09T23:50:14.113Z,43.80
2023-04-09T23:52:41.975Z,43.90
2023-04-09T23:55:10.791Z,43.80
2023-04-09T23:57:39.788Z,43.80
